createdAt,value
2023-03-12T00:00:11.471Z,3.30
2023-03-12T00:02:38.746Z,3.83
2023-03-12T00:05:06.688Z,3.67
2023-03-12T00:07:36.431Z,3.50
2023-03-12T00:10:05.804Z,3.80
2023-03-12T00:12:33.017Z,3.50
2023-03-12T00:15:00.900Z,3.60
2023-03-12T00:17:30.285Z,3.10
2023-03-12T00:19:57.400Z,3.70
2023-03-12T00:22:25.806Z,4.20
2023-03-12T00:24:55.812Z,3.60
2023-03-12T00:27:25.469Z,3.30
2023-03-12T00:29:52.630Z,3.63
2023-03-12T00:32:20.296Z,4.10
2023-03-12T00:34:56.512Z,3.70
2023-03-12T00:37:23.636Z,3.67
2023-03-12T00:39:51.186Z,3.83
2023-03-12T00:42:18.768Z,3.87
2023-03-12T00:44:46.107Z,4.20
2023-03-12T00:47:14.000Z,3.80
2023-03-12T00:49:41.265Z,3.80
2023-03-12T00:52:08.674Z,3.70
2023-03-12T00:54:35.802Z,3.47
2023-03-12T00:57:03.184Z,3.17
2023-03-12T00:59:31.785Z,3.60
2023-03-12T01:01:58.898Z,3.43
2023-03-12T01:04:26.022Z,3.70
2023-03-12T01:06:53.133Z,3.10
2023-03-12T01:09:20.304Z,3.30
2023-03-12T01:11:47.420Z,4.07
2023-03-12T01:14:14.607Z,3.27
2023-03-12T01:16:41.715Z,3.07
2023-03-12T01:19:08.964Z,3.73
2023-03-12T01:21:36.262Z,4.43
2023-03-12T01:24:03.598Z,3.57
2023-03-12T01:26:30.827Z,3.40
2023-03-12T01:28:57.965Z,3.60
2023-03-12T01:31:25.616Z,3.27
2023-03-12T01:33:54.110Z,3.20
2023-03-12T01:36:25.231Z,3.10
2023-03-12T01:38:55.399Z,3.70
2023-03-12T01:41:24.767Z,3.17
2023-03-12T01:43:52.390Z,3.10
2023-03-12T01:46:36.706Z,3.10
2023-03-12T01:49:03.829Z,3.33
2023-03-12T01:51:45.024Z,3.77
2023-03-12T01:54:34.375Z,3.03
2023-03-12T01:57:04.268Z,3.43
2023-03-12T02:00:05.699Z,2.63
2023-03-12T02:02:34.150Z,3.10
2023-03-12T02:05:31.514Z,3.13
2023-03-12T02:07:59.379Z,3.53
2023-03-12T02:10:27.321Z,3.47
2023-03-12T02:12:54.755Z,3.30
2023-03-12T02:15:22.230Z,3.47
2023-03-12T02:17:49.393Z,3.63
2023-03-12T02:20:32.138Z,3.00
2023-03-12T02:23:38.091Z,2.97
2023-03-12T02:26:06.947Z,3.80
2023-03-12T02:28:42.631Z,3.10
2023-03-12T02:33:40.653Z,3.20
2023-03-12T02:36:09.351Z,3.10
2023-03-12T02:38:54.214Z,3.03
2023-03-12T02:41:26.820Z,3.00
2023-03-12T02:44:11.291Z,3.37
2023-03-12T02:46:51.834Z,3.27
2023-03-12T02:49:21.823Z,3.10
2023-03-12T02:51:49.930Z,3.60
2023-03-12T02:54:20.549Z,3.10
2023-03-12T02:56:48.639Z,3.87
2023-03-12T02:59:16.721Z,3.33
2023-03-12T03:01:44.285Z,3.20
2023-03-12T03:04:13.061Z,3.60
2023-03-12T03:06:43.215Z,3.30
2023-03-12T03:09:10.558Z,3.93
2023-03-12T03:11:37.642Z,3.50
2023-03-12T03:14:06.976Z,3.27
2023-03-12T03:16:34.762Z,3.67
2023-03-12T03:19:02.044Z,3.13
2023-03-12T03:21:30.289Z,3.83
2023-03-12T03:23:57.405Z,3.30
2023-03-12T03:26:25.218Z,3.70
2023-03-12T03:28:52.677Z,3.50
2023-03-12T03:31:19.961Z,3.37
2023-03-12T03:33:47.654Z,2.97
2023-03-12T03:36:15.291Z,3.80
2023-03-12T03:38:47.053Z,3.40
2023-03-12T03:41:14.192Z,3.87
2023-03-12T03:43:41.358Z,2.83
2023-03-12T03:46:08.539Z,3.60
2023-03-12T03:48:35.665Z,3.10
2023-03-12T03:51:05.717Z,3.27
2023-03-12T03:53:34.362Z,3.60
2023-03-12T03:56:13.826Z,3.40
2023-03-12T03:58:41.023Z,2.83
2023-03-12T04:01:08.645Z,3.40
2023-03-12T04:03:36.322Z,3.90
2023-03-12T04:06:06.224Z,3.80
2023-03-12T04:08:35.714Z,3.90
2023-03-12T04:11:18.009Z,3.40
2023-03-12T04:13:45.885Z,3.17
2023-03-12T04:16:14.507Z,3.37
2023-03-12T04:18:41.902Z,3.30
2023-03-12T04:21:12.830Z,3.57
2023-03-12T04:23:40.323Z,3.10
2023-03-12T04:26:08.378Z,3.50
2023-03-12T04:28:36.594Z,4.10
2023-03-12T04:31:07.217Z,3.80
2023-03-12T04:33:37.741Z,3.03
2023-03-12T04:36:06.316Z,3.93
2023-03-12T04:38:33.852Z,3.50
2023-03-12T04:41:09.661Z,3.87
2023-03-12T04:43:36.853Z,3.60
2023-03-12T04:46:04.624Z,3.57
2023-03-12T04:48:31.841Z,3.57
2023-03-12T04:50:58.939Z,3.60
2023-03-12T04:53:26.556Z,4.27
2023-03-12T04:55:53.829Z,4.27
2023-03-12T04:58:21.867Z,3.73
2023-03-12T05:00:50.221Z,4.10
2023-03-12T05:03:18.208Z,3.73
2023-03-12T05:05:45.338Z,3.70
2023-03-12T05:08:12.550Z,3.37
2023-03-12T05:10:40.157Z,3.30
2023-03-12T05:13:27.475Z,4.10
2023-03-12T05:15:54.587Z,3.83
2023-03-12T05:18:21.878Z,3.70
2023-03-12T05:21:00.232Z,3.60
2023-03-12T05:23:27.999Z,3.40
2023-03-12T05:25:55.197Z,3.60
2023-03-12T05:28:27.720Z,3.73
2023-03-12T05:31:00.232Z,3.70
2023-03-12T05:33:29.154Z,3.87
2023-03-12T05:35:56.468Z,3.47
2023-03-12T05:38:23.621Z,3.97
2023-03-12T05:40:55.958Z,4.10
2023-03-12T05:43:23.668Z,4.23
2023-03-12T05:45:51.009Z,3.83
2023-03-12T05:48:18.308Z,3.77
2023-03-12T05:50:46.084Z,3.73
2023-03-12T05:53:13.147Z,3.40
2023-03-12T05:55:40.944Z,3.60
2023-03-12T05:58:08.639Z,3.70
2023-03-12T06:00:38.104Z,3.87
2023-03-12T06:03:06.019Z,3.43
2023-03-12T06:05:35.436Z,3.97
2023-03-12T06:08:04.812Z,3.90
2023-03-12T06:10:32.014Z,4.13
2023-03-12T06:12:59.165Z,3.93
2023-03-12T06:15:26.296Z,3.83
2023-03-12T06:17:53.413Z,3.97
2023-03-12T06:20:20.656Z,3.90
2023-03-12T06:22:47.728Z,3.70
2023-03-12T06:25:15.378Z,3.77
2023-03-12T06:27:42.621Z,3.47
2023-03-12T06:30:10.700Z,3.63
2023-03-12T06:32:37.890Z,4.83
2023-03-12T06:35:06.101Z,4.13
2023-03-12T06:37:33.310Z,4.10
2023-03-12T06:40:00.451Z,3.70
2023-03-12T06:42:28.080Z,4.77
2023-03-12T06:44:55.288Z,4.40
2023-03-12T06:47:22.480Z,4.00
2023-03-12T06:49:49.590Z,3.33
2023-03-12T06:52:16.775Z,3.33
2023-03-12T06:54:44.006Z,3.33
2023-03-12T06:57:11.146Z,3.40
2023-03-12T06:59:38.279Z,2.97
2023-03-12T07:02:05.633Z,3.00
2023-03-12T07:04:32.773Z,3.03
2023-03-12T07:07:00.357Z,3.47
2023-03-12T07:09:27.480Z,3.43
2023-03-12T07:11:54.565Z,3.53
2023-03-12T07:14:21.743Z,2.63
2023-03-12T07:16:49.033Z,3.60
2023-03-12T07:19:16.682Z,3.33
2023-03-12T07:21:43.791Z,3.30
2023-03-12T07:24:10.872Z,3.27
2023-03-12T07:26:38.044Z,2.70
2023-03-12T07:29:05.227Z,3.20
2023-03-12T07:31:32.463Z,3.00
2023-03-12T07:33:59.741Z,2.77
2023-03-12T07:36:27.057Z,2.97
2023-03-12T07:38:54.229Z,2.73
2023-03-12T07:41:21.579Z,2.80
2023-03-12T07:43:49.369Z,2.80
2023-03-12T07:46:16.645Z,2.97
2023-03-12T07:48:44.843Z,3.20
2023-03-12T07:51:12.000Z,2.80
2023-03-12T07:53:39.356Z,2.80
2023-03-12T07:56:07.384Z,2.60
2023-03-12T07:58:36.565Z,2.87
2023-03-12T08:01:03.938Z,3.00
2023-03-12T08:03:31.236Z,3.00
2023-03-12T08:06:01.632Z,2.73
2023-03-12T08:08:29.850Z,2.60
2023-03-12T08:10:58.345Z,2.55
2023-03-12T08:13:26.605Z,2.80
2023-03-12T08:15:54.864Z,3.33
2023-03-12T08:18:23.090Z,2.73
2023-03-12T08:20:54.756Z,2.70
2023-03-12T08:23:22.989Z,3.15
2023-03-12T08:25:51.340Z,2.42
2023-03-12T08:28:20.071Z,2.38
2023-03-12T08:30:50.182Z,2.55
2023-03-12T08:33:17.763Z,2.88
2023-03-12T08:35:45.538Z,2.55
2023-03-12T08:38:12.842Z,2.60
2023-03-12T08:40:40.240Z,2.38
2023-03-12T08:43:08.036Z,2.25
2023-03-12T08:45:38.304Z,2.40
2023-03-12T08:48:07.188Z,1.90
2023-03-12T08:50:34.433Z,1.85
2023-03-12T08:53:01.580Z,2.40
2023-03-12T08:55:29.715Z,2.15
2023-03-12T08:57:57.645Z,2.17
2023-03-12T09:00:25.213Z,2.03
2023-03-12T09:02:53.981Z,2.40
2023-03-12T09:05:21.121Z,2.03
2023-03-12T09:07:50.078Z,2.00
2023-03-12T09:10:17.958Z,1.98
2023-03-12T09:12:45.298Z,1.80
2023-03-12T09:15:12.579Z,1.77
2023-03-12T09:17:39.920Z,1.80
2023-03-12T09:20:14.022Z,1.50
2023-03-12T09:22:42.714Z,1.70
2023-03-12T09:25:11.445Z,1.60
2023-03-12T09:27:40.800Z,1.52
2023-03-12T09:30:10.815Z,1.85
2023-03-12T09:32:38.264Z,1.95
2023-03-12T09:35:07.529Z,1.60
2023-03-12T09:37:35.739Z,1.70
2023-03-12T09:40:07.612Z,2.22
2023-03-12T09:42:57.393Z,1.58
2023-03-12T09:45:42.831Z,1.85
2023-03-12T09:48:48.442Z,1.90
2023-03-12T09:51:31.538Z,1.73
2023-03-12T09:54:03.789Z,1.35
2023-03-12T09:56:31.570Z,1.98
2023-03-12T09:58:58.825Z,1.48
2023-03-12T10:01:49.585Z,1.65
2023-03-12T10:04:56.330Z,1.60
2023-03-12T10:07:37.340Z,1.80
2023-03-12T10:10:16.348Z,1.60
2023-03-12T10:13:17.139Z,1.77
2023-03-12T10:16:13.614Z,1.80
2023-03-12T10:19:14.429Z,1.70
2023-03-12T10:22:14.497Z,1.70
2023-03-12T10:25:35.567Z,1.60
2023-03-12T10:28:37.750Z,1.48
2023-03-12T10:31:27.197Z,1.80
2023-03-12T10:34:01.035Z,1.52
2023-03-12T10:36:38.819Z,1.60
2023-03-12T10:39:17.058Z,1.70
2023-03-12T10:41:47.043Z,1.60
2023-03-12T10:44:25.463Z,1.60
2023-03-12T10:47:32.057Z,1.60
2023-03-12T10:50:17.517Z,1.60
2023-03-12T10:52:47.331Z,1.50
2023-03-12T10:55:20.842Z,1.42
2023-03-12T10:57:48.839Z,1.75
2023-03-12T11:00:32.666Z,2.03
2023-03-12T11:03:18.266Z,1.75
2023-03-12T11:05:53.134Z,1.45
2023-03-12T11:08:40.522Z,1.85
2023-03-12T11:11:07.707Z,1.70
2023-03-12T11:13:41.565Z,1.90
2023-03-12T11:16:17.960Z,1.70
2023-03-12T11:19:05.650Z,1.48
2023-03-12T11:21:40.289Z,2.40
2023-03-12T11:24:14.359Z,2.10
2023-03-12T11:26:59.411Z,1.92
2023-03-12T11:29:51.042Z,2.28
2023-03-12T11:32:41.191Z,2.33
2023-03-12T11:35:18.437Z,2.10
2023-03-12T11:38:26.988Z,2.47
2023-03-12T11:41:20.405Z,2.10
2023-03-12T11:44:31.850Z,1.98
2023-03-12T11:47:27.620Z,2.60
2023-03-12T11:50:59.017Z,2.43
2023-03-12T11:53:47.424Z,2.20
2023-03-12T11:56:33.172Z,2.20
2023-03-12T11:59:25.191Z,2.30
2023-03-12T12:02:11.729Z,2.40
2023-03-12T12:05:03.572Z,2.28
2023-03-12T12:07:36.778Z,2.65
2023-03-12T12:10:15.218Z,2.00
2023-03-12T12:13:03.893Z,2.08
2023-03-12T12:15:53.040Z,2.33
2023-03-12T12:18:47.167Z,2.53
2023-03-12T12:21:55.753Z,2.30
2023-03-12T12:24:44.029Z,2.42
2023-03-12T12:27:40.513Z,2.38
2023-03-12T12:30:07.984Z,2.53
2023-03-12T12:32:43.931Z,2.65
2023-03-12T12:35:24.724Z,2.53
2023-03-12T12:38:12.671Z,2.08
2023-03-12T12:40:51.496Z,2.40
2023-03-12T12:43:28.116Z,2.80
2023-03-12T12:46:04.357Z,2.40
2023-03-12T12:48:37.475Z,2.95
2023-03-12T12:51:08.927Z,2.40
2023-03-12T12:54:03.773Z,2.47
2023-03-12T12:56:51.004Z,2.30
2023-03-12T12:59:36.933Z,2.30
2023-03-12T13:02:14.416Z,2.67
2023-03-12T13:04:42.314Z,2.53
2023-03-12T13:07:12.597Z,2.45
2023-03-12T13:09:52.610Z,2.60
2023-03-12T13:12:33.329Z,2.45
2023-03-12T13:15:02.754Z,2.53
2023-03-12T13:17:52.141Z,2.13
2023-03-12T13:20:22.274Z,2.80
2023-03-12T13:23:18.954Z,1.90
2023-03-12T13:28:56.721Z,2.30
2023-03-12T13:31:29.883Z,2.08
2023-03-12T13:34:15.956Z,2.13
2023-03-12T13:36:46.452Z,2.03
2023-03-12T13:39:16.995Z,2.00
2023-03-12T13:41:56.067Z,1.80
2023-03-12T13:44:23.661Z,2.50
2023-03-12T13:47:11.204Z,1.70
2023-03-12T13:49:47.244Z,2.05
2023-03-12T13:52:21.078Z,2.55
2023-03-12T13:55:07.938Z,2.33
2023-03-12T13:57:49.600Z,2.30
2023-03-12T14:00:38.014Z,2.00
2023-03-12T14:03:40.414Z,2.47
2023-03-12T14:06:07.969Z,2.55
2023-03-12T14:08:59.034Z,2.67
2023-03-12T14:11:58.072Z,3.13
2023-03-12T14:14:51.392Z,2.55
2023-03-12T14:17:28.533Z,4.13
2023-03-12T14:20:19.351Z,3.63
2023-03-12T14:23:07.650Z,2.75
2023-03-12T14:25:41.608Z,2.38
2023-03-12T14:28:21.958Z,2.63
2023-03-12T14:31:10.821Z,2.13
2023-03-12T14:33:57.236Z,2.45
2023-03-12T14:36:50.713Z,2.67
2023-03-12T14:39:56.049Z,2.78
2023-03-12T14:42:35.795Z,2.25
2023-03-12T14:45:19.407Z,2.38
2023-03-12T14:47:52.883Z,2.47
2023-03-12T14:50:23.059Z,3.08
2023-03-12T14:52:51.878Z,2.63
2023-03-12T14:55:26.390Z,2.75
2023-03-12T14:58:20.854Z,2.60
2023-03-12T15:00:59.069Z,1.77
2023-03-12T15:03:29.476Z,2.50
2023-03-12T15:05:58.188Z,2.95
2023-03-12T15:08:26.350Z,3.88
2023-03-12T15:11:01.274Z,2.78
2023-03-12T15:13:29.102Z,2.80
2023-03-12T15:15:57.121Z,4.25
2023-03-12T15:18:31.225Z,3.03
2023-03-12T15:21:02.247Z,2.70
2023-03-12T15:23:33.636Z,2.50
2023-03-12T15:26:30.371Z,2.88
2023-03-12T15:31:59.895Z,3.30
2023-03-12T15:34:38.957Z,3.35
2023-03-12T15:37:41.225Z,2.78
2023-03-12T15:40:25.686Z,3.08
2023-03-12T15:43:02.593Z,2.30
2023-03-12T15:45:41.585Z,2.63
2023-03-12T15:48:42.496Z,2.53
2023-03-12T15:51:36.580Z,3.50
2023-03-12T15:54:27.627Z,3.67
2023-03-12T15:56:58.031Z,3.10
2023-03-12T15:59:28.800Z,3.28
2023-03-12T16:01:58.422Z,4.03
2023-03-12T16:04:26.376Z,3.65
2023-03-12T16:06:54.587Z,2.80
2023-03-12T16:09:27.664Z,2.30
2023-03-12T16:11:57.514Z,2.75
2023-03-12T16:14:34.915Z,3.33
2023-03-12T16:17:03.320Z,3.03
2023-03-12T16:19:36.057Z,3.50
2023-03-12T16:22:04.635Z,3.53
2023-03-12T16:24:35.098Z,2.95
2023-03-12T16:27:07.684Z,2.95
2023-03-12T16:29:39.879Z,3.30
2023-03-12T16:32:14.712Z,3.45
2023-03-12T16:34:43.766Z,3.08
2023-03-12T16:37:13.832Z,3.20
2023-03-12T16:39:43.913Z,3.72
2023-03-12T16:42:20.178Z,3.42
2023-03-12T16:44:48.121Z,3.30
2023-03-12T16:47:16.375Z,3.15
2023-03-12T16:49:45.298Z,3.60
2023-03-12T16:52:26.710Z,3.13
2023-03-12T16:54:54.740Z,3.08
2023-03-12T16:57:40.628Z,2.67
2023-03-12T17:00:21.099Z,3.10
2023-03-12T17:02:51.909Z,2.40
2023-03-12T17:05:19.984Z,2.90
2023-03-12T17:07:47.833Z,3.35
2023-03-12T17:10:17.158Z,2.70
2023-03-12T17:12:48.230Z,3.28
2023-03-12T17:15:26.530Z,3.17
2023-03-12T17:18:00.367Z,3.85
2023-03-12T17:20:29.552Z,5.25
2023-03-12T17:22:59.987Z,5.70
2023-03-12T17:25:33.400Z,4.05
2023-03-12T17:28:01.401Z,3.53
2023-03-12T17:30:31.623Z,3.90
2023-03-12T17:33:07.201Z,3.55
2023-03-12T17:35:36.124Z,4.43
2023-03-12T17:38:05.819Z,3.83
2023-03-12T17:40:35.953Z,4.32
2023-03-12T17:43:04.661Z,3.97
2023-03-12T17:45:37.197Z,3.97
2023-03-12T17:48:07.151Z,4.28
2023-03-12T17:50:36.704Z,3.33
2023-03-12T17:53:05.490Z,4.18
2023-03-12T17:55:36.377Z,3.80
2023-03-12T17:58:06.675Z,4.25
2023-03-12T18:00:35.528Z,4.28
2023-03-12T18:03:04.142Z,3.45
2023-03-12T18:05:32.031Z,3.80
2023-03-12T18:08:03.268Z,4.57
2023-03-12T18:10:32.282Z,3.75
2023-03-12T18:13:00.632Z,3.78
2023-03-12T18:15:29.561Z,4.95
2023-03-12T18:17:59.244Z,5.07
2023-03-12T18:20:37.806Z,4.40
2023-03-12T18:23:08.462Z,3.63
2023-03-12T18:25:39.748Z,3.90
2023-03-12T18:28:08.448Z,4.20
2023-03-12T18:30:38.727Z,4.43
2023-03-12T18:33:07.202Z,3.17
2023-03-12T18:35:37.095Z,3.97
2023-03-12T18:38:05.647Z,3.55
2023-03-12T18:40:34.671Z,3.08
2023-03-12T18:43:03.713Z,3.92
2023-03-12T18:45:34.655Z,5.40
2023-03-12T18:48:02.883Z,4.93
2023-03-12T18:50:30.937Z,3.50
2023-03-12T18:52:59.099Z,3.67
2023-03-12T18:55:27.567Z,3.95
2023-03-12T18:57:55.959Z,3.95
2023-03-12T19:00:25.552Z,3.80
2023-03-12T19:02:54.308Z,3.80
2023-03-12T19:05:26.099Z,3.60
2023-03-12T19:07:55.747Z,4.65
2023-03-12T19:10:28.247Z,3.17
2023-03-12T19:12:59.123Z,3.40
2023-03-12T19:15:29.254Z,3.38
2023-03-12T19:17:59.792Z,3.50
2023-03-12T19:20:29.679Z,3.60
2023-03-12T19:22:57.966Z,3.63
2023-03-12T19:25:27.612Z,3.58
2023-03-12T19:27:56.233Z,3.22
2023-03-12T19:30:27.751Z,3.30
2023-03-12T19:33:01.247Z,3.88
2023-03-12T19:35:30.082Z,3.72
2023-03-12T19:38:02.677Z,3.58
2023-03-12T19:40:31.003Z,4.00
2023-03-12T19:42:59.541Z,4.65
2023-03-12T19:45:28.442Z,4.10
2023-03-12T19:47:56.771Z,4.28
2023-03-12T19:50:25.016Z,4.60
2023-03-12T19:52:53.266Z,4.57
2023-03-12T19:55:21.398Z,5.15
2023-03-12T19:57:52.298Z,5.15
2023-03-12T20:00:22.679Z,4.82
2023-03-12T20:02:51.474Z,4.45
2023-03-12T20:05:20.263Z,4.60
2023-03-12T20:07:49.634Z,4.90
2023-03-12T20:10:18.441Z,4.90
2023-03-12T20:12:47.458Z,4.80
2023-03-12T20:15:16.072Z,4.57
2023-03-12T20:17:44.571Z,5.25
2023-03-12T20:20:13.658Z,5.20
2023-03-12T20:22:42.128Z,4.50
2023-03-12T20:25:11.771Z,5.00
2023-03-12T20:27:41.242Z,4.53
2023-03-12T20:30:13.870Z,5.35
2023-03-12T20:32:43.280Z,5.18
2023-03-12T20:35:12.520Z,5.38
2023-03-12T20:37:40.972Z,5.88
2023-03-12T20:40:12.109Z,5.18
2023-03-12T20:42:42.136Z,4.85
2023-03-12T20:45:11.337Z,5.10
2023-03-12T20:47:40.802Z,5.25
2023-03-12T20:50:12.026Z,5.03
2023-03-12T20:52:40.378Z,5.53
2023-03-12T20:55:09.279Z,5.75
2023-03-12T20:57:38.598Z,4.82
2023-03-12T21:00:10.952Z,4.82
2023-03-12T21:02:40.432Z,5.15
2023-03-12T21:05:11.788Z,5.78
2023-03-12T21:07:39.970Z,5.32
2023-03-12T21:10:09.599Z,5.65
2023-03-12T21:12:40.280Z,6.82
2023-03-12T21:15:10.964Z,6.50
2023-03-12T21:17:41.116Z,4.95
2023-03-12T21:20:13.694Z,6.40
2023-03-12T21:22:43.639Z,5.15
2023-03-12T21:25:12.641Z,4.95
2023-03-12T21:27:49.748Z,4.55
2023-03-12T21:30:20.165Z,4.75
2023-03-12T21:32:47.866Z,5.03
2023-03-12T21:35:15.628Z,4.88
2023-03-12T21:37:43.114Z,3.90
2023-03-12T21:40:11.536Z,4.32
2023-03-12T21:42:39.227Z,5.00
2023-03-12T21:45:08.199Z,4.88
2023-03-12T21:47:38.897Z,4.43
2023-03-12T21:50:06.565Z,4.40
2023-03-12T21:52:41.265Z,4.78
2023-03-12T21:55:11.339Z,4.40
2023-03-12T21:57:38.666Z,4.20
2023-03-12T22:00:11.196Z,4.40
2023-03-12T22:02:39.896Z,4.47
2023-03-12T22:05:08.557Z,3.90
2023-03-12T22:07:35.732Z,4.47
2023-03-12T22:10:04.655Z,4.32
2023-03-12T22:12:32.244Z,4.28
2023-03-12T22:14:59.403Z,4.20
2023-03-12T22:17:26.733Z,4.07
2023-03-12T22:19:53.886Z,4.90
2023-03-12T22:22:20.987Z,4.78
2023-03-12T22:24:48.087Z,4.45
2023-03-12T22:27:15.182Z,4.05
2023-03-12T22:29:43.540Z,3.38
2023-03-12T22:32:10.698Z,3.67
2023-03-12T22:34:38.912Z,3.97
2023-03-12T22:37:07.049Z,3.92
2023-03-12T22:39:34.258Z,3.53
2023-03-12T22:42:01.434Z,3.60
2023-03-12T22:44:28.523Z,3.95
2023-03-12T22:46:55.689Z,3.70
2023-03-12T22:49:22.892Z,3.47
2023-03-12T22:51:49.982Z,4.38
2023-03-12T22:54:17.093Z,4.10
2023-03-12T22:56:44.239Z,3.75
2023-03-12T22:59:11.302Z,3.50
2023-03-12T23:01:38.478Z,3.72
2023-03-12T23:04:06.408Z,3.30
2023-03-12T23:06:33.756Z,4.07
2023-03-12T23:09:01.058Z,3.80
2023-03-12T23:11:29.678Z,3.63
2023-03-12T23:14:12.314Z,3.92
2023-03-12T23:16:39.443Z,3.90
2023-03-12T23:19:06.924Z,3.95
2023-03-12T23:21:34.057Z,4.10
2023-03-12T23:24:01.209Z,4.15
2023-03-12T23:26:29.076Z,4.00
2023-03-12T23:28:58.423Z,4.90
2023-03-12T23:31:27.743Z,4.45
2023-03-12T23:33:56.775Z,4.50
2023-03-12T23:36:24.841Z,4.45
2023-03-12T23:38:52.548Z,4.38
2023-03-12T23:41:31.797Z,4.93
2023-03-12T23:43:59.928Z,4.90
2023-03-12T23:46:27.580Z,5.18
2023-03-12T23:48:55.488Z,5.80
2023-03-12T23:51:25.298Z,5.40
2023-03-12T23:53:57.658Z,5.60
2023-03-12T23:56:27.568Z,6.28
2023-03-12T23:58:54.697Z,5.57
